Photo de Laille
Rennes
Ciel dégagé
Metar : 2018/02/25 01:00 LFRN 250100Z AUTO 03005KT 360V060 CAVOK M01/M05 Q1017 NOSIG
Couverture nuageuse :
Pression de 30.03 inHg (1017 hPa)
Humidité : 75%
Température : 30°F (-1°C)
Vent de NNE at 6 mph (9 km/h)
Visibilité : greater than 7 miles (10 km)
Nantes
partiellement nuageux
Metar : 2018/02/25 01:00 LFRS 250100Z AUTO 04004KT 020V080 6000 NSC M00/M03 Q1015 NOSIG
Couverture nuageuse :
Traduc : Partly cloudy 700 ft
Pression de 29.97 inHg (1015 hPa)
Humidité : 80%
Température : 32°F (0°C)
Point de rosée : 27°F (-3°C)
Vent de NE at 5 mph (7 km/h)
Visibilité : 4 miles (6 km)
Lannion
Ciel dégagé
Metar : 2018/02/25 01:00 LFRO 250100Z AUTO 06004KT 020V080 CAVOK 01/M03 Q1018
Couverture nuageuse :
Traduc : Partly cloudy 700 ft
Pression de 30.06 inHg (1018 hPa)
Humidité : 75%
Température : 34°F (1°C)
Point de rosée : 27°F (-3°C)
Vent de ENE at 5 mph (7 km/h)
Visibilité : greater than 7 miles (10 km)
Dinard
Ciel dégagé
Metar : 2018/02/25 01:00 LFRD 250100Z AUTO 06006KT CAVOK 01/M04 Q1018 NOSIG
Couverture nuageuse :
Traduc : Partly cloudy 700 ft
Pression de 30.06 inHg (1018 hPa)
Humidité : 70%
Température : 34°F (1°C)
Point de rosée : 25°F (-4°C)
Vent de ENE at 7 mph (11 km/h)
Visibilité : greater than 7 miles (10 km)
Brest
Brume, partiellement nuageux
Metar : 2018/02/25 01:00 LFRB 250100Z AUTO 06007KT 5000 BR NSC M00/M02 Q1017 TEMPO 0400 BCFG
Couverture nuageuse :
Traduc : Partly cloudy 700 ft
Pression de 30.03 inHg (1017 hPa)
Humidité : 87%
Température : 32°F (0°C)
Point de rosée : 28°F (-2°C)
Vent de ENE at 8 mph (13 km/h)
Visibilité : 3 miles (5 km)
Quimper
partiellement nuageux
Metar : 2018/02/25 01:00 LFRQ 250100Z AUTO 08007KT 7000 NSC M00/M03 Q1017
Couverture nuageuse :
Traduc : Partly cloudy 700 ft
Pression de 30.03 inHg (1017 hPa)
Humidité : 80%
Température : 32°F (0°C)
Point de rosée : 27°F (-3°C)
Vent de E at 8 mph (13 km/h)
Visibilité : 4 miles (7 km)
St Nazaire
partiellement nuageux
Metar : 2018/02/25 01:00 LFRZ 250100Z AUTO 02006KT 7000 NSC 00/M03 Q1016 NOSIG
Couverture nuageuse :
Traduc : Partly cloudy 700 ft
Pression de 30 inHg (1016 hPa)
Humidité : 80%
Température : 32°F (0°C)
Point de rosée : 27°F (-3°C)
Vent de NNE at 7 mph (11 km/h)
Visibilité : 4 miles (7 km)
St Brieuc
partiellement nuageux
Metar : 2018/02/24 22:00 LFRT 242200Z AUTO 10007KT 8000 NSC 01/M03 Q1017
Couverture nuageuse :
Traduc : Partly cloudy 700 ft
Pression de 30.03 inHg (1017 hPa)
Humidité : 75%
Température : 34°F (1°C)
Point de rosée : 27°F (-3°C)
Vent de E at 8 mph (13 km/h)
Visibilité : 5 miles (8 km)
Lorient
partiellement nuageux
Metar : 2018/02/25 01:00 LFRH 250100Z AUTO 05008KT 7000 NSC M00/M03 Q1017 NOSIG
Couverture nuageuse :
Traduc : Partly cloudy 700 ft
Pression de 30.03 inHg (1017 hPa)
Humidité : 80%
Température : 32°F (0°C)
Point de rosée : 27°F (-3°C)
Vent de NE at 9 mph (15 km/h)
Visibilité : 4 miles (7 km)
Vannes-Meucon
partiellement nuageux
Metar : 2018/02/25 01:00 LFRV 250100Z AUTO 02007KT 8000 NSC M01/M04 Q1016
Couverture nuageuse :
Traduc : Partly cloudy 700 ft
Pression de 30 inHg (1016 hPa)
Humidité : 80%
Température : 30°F (-1°C)
Point de rosée : 25°F (-4°C)
Vent de NNE at 8 mph (13 km/h)
Visibilité : 5 miles (8 km)

 


   Weather Underground PWS IBRETAGN39      Weather Underground PWS IBRETAGN39Retour Météo-Laillé adhérent de Météo-Bretagne et d'Infoclimat. Données mises à jour en temps réel via Météolink Climatologie réalisée sous Wswin et GraphWeather.

Affichage prévisions météo de WeatherUnderground via script PHP de Saratoga.

Copyright 2012-2017